PWSweather.com
Personal Weather Stations
Station Observations
EDGELEY
Edgeley, Nd, Edgeley, ND 58433

Edgeley, NdEdgeley, ND 58433

Lat: 46.3599246, Lon: -98.7144392

Elevation: 1575

Station Type: Davis/Vantage Pro

www.edgeleyweather.com

High Low Average
Temperature 91.4°F33.0°C 64.9°F18.3°C 79.2°F26.2°C
Dew Point 65.9°F18.8°C 58.4°F14.7°C 62.0°F16.7°C
Winds 31.0 mph 49.9 kmh 2.0 mph 3.2 kmh 11.0 mph N17.7 kmh N
Wind Gusts 39.0 mph62.8 kmh 3.0 mph4.8 kmh 19.0 mph30.6 kmh
Humidity 81% 38% 58%
Pressure 29.69 in1005.4 mb 29.52 in999.7 mb -
Precipitation 0.00 in0.0 mm - -
Hour Temp Dew Point Humidity Winds Wind Gusts Pressure Precip Precip Rate Daily Precip Total
12:00 AM 68.5°F20.3°C 59.1°F15.1°C 72% 3.0 mph N4.8 kmh N 5.0 mph8.0 kmh 29.69 in1005.4 mb 0.00 in0.0 mm 0.00 in0.0 mm 0.00 in0.0 mm
12:05 AM 68.4°F20.2°C 59.0°F15.0°C 72% 3.0 mph N4.8 kmh N 5.0 mph8.0 kmh 29.68 in1005.1 mb 0.00 in0.0 mm 0.00 in0.0 mm 0.00 in0.0 mm
12:10 AM 68.4°F20.2°C 58.6°F14.8°C 71% 2.0 mph N3.2 kmh N 6.0 mph9.7 kmh 29.68 in1005.1 mb 0.00 in0.0 mm 0.00 in0.0 mm 0.00 in0.0 mm
12:15 AM 68.4°F20.2°C 58.6°F14.8°C 71% 5.0 mph N8.0 kmh N 5.0 mph8.0 kmh 29.69 in1005.4 mb 0.00 in0.0 mm 0.00 in0.0 mm 0.00 in0.0 mm
12:20 AM 68.5°F20.3°C 58.7°F14.8°C 71% 4.0 mph N6.4 kmh N 5.0 mph8.0 kmh 29.68 in1005.1 mb 0.00 in0.0 mm 0.00 in0.0 mm 0.00 in0.0 mm
12:25 AM 68.6°F20.3°C 58.4°F14.7°C 70% 5.0 mph N8.0 kmh N 6.0 mph9.7 kmh 29.68 in1005.1 mb 0.00 in0.0 mm 0.00 in0.0 mm 0.00 in0.0 mm
12:30 AM 68.7°F20.4°C 58.5°F14.7°C 70% 3.0 mph N4.8 kmh N 6.0 mph9.7 kmh 29.68 in1005.1 mb 0.00 in0.0 mm 0.00 in0.0 mm 0.00 in0.0 mm
12:35 AM 68.8°F20.4°C 58.6°F14.8°C 70% 4.0 mph N6.4 kmh N 7.0 mph11.3 kmh 29.68 in1005.1 mb 0.00 in0.0 mm 0.00 in0.0 mm 0.00 in0.0 mm
12:40 AM 68.9°F20.5°C 58.7°F14.8°C 70% 3.0 mph N4.8 kmh N 7.0 mph11.3 kmh 29.68 in1005.1 mb 0.00 in0.0 mm 0.00 in0.0 mm 0.00 in0.0 mm
12:45 AM 68.9°F20.5°C 58.7°F14.8°C 70% 5.0 mph N8.0 kmh N 5.0 mph8.0 kmh 29.68 in1005.1 mb 0.00 in0.0 mm 0.00 in0.0 mm 0.00 in0.0 mm
12:50 AM 68.9°F20.5°C 58.7°F14.8°C 70% 3.0 mph N4.8 kmh N 6.0 mph9.7 kmh 29.68 in1005.1 mb 0.00 in0.0 mm 0.00 in0.0 mm 0.00 in0.0 mm
12:55 AM 68.8°F20.4°C 59.0°F15.0°C 71% 5.0 mph N8.0 kmh N 7.0 mph11.3 kmh 29.68 in1005.1 mb 0.00 in0.0 mm 0.00 in0.0 mm 0.00 in0.0 mm
01:00 AM 68.8°F20.4°C 59.0°F15.0°C 71% 6.0 mph N9.7 kmh N 6.0 mph9.7 kmh 29.68 in1005.1 mb 0.00 in0.0 mm 0.00 in0.0 mm 0.00 in0.0 mm
01:05 AM 68.7°F20.4°C 58.9°F14.9°C 71% 6.0 mph N9.7 kmh N 7.0 mph11.3 kmh 29.68 in1005.1 mb 0.00 in0.0 mm 0.00 in0.0 mm 0.00 in0.0 mm
01:10 AM 68.6°F20.3°C 58.8°F14.9°C 71% 3.0 mph N4.8 kmh N 7.0 mph11.3 kmh 29.68 in1005.1 mb 0.00 in0.0 mm 0.00 in0.0 mm 0.00 in0.0 mm
01:15 AM 68.5°F20.3°C 59.1°F15.1°C 72% 2.0 mph N3.2 kmh N 6.0 mph9.7 kmh 29.68 in1005.1 mb 0.00 in0.0 mm 0.00 in0.0 mm 0.00 in0.0 mm
01:20 AM 68.5°F20.3°C 59.1°F15.1°C 72% 4.0 mph N6.4 kmh N 7.0 mph11.3 kmh 29.68 in1005.1 mb 0.00 in0.0 mm 0.00 in0.0 mm 0.00 in0.0 mm
01:25 AM 68.4°F20.2°C 59.0°F15.0°C 72% 3.0 mph N4.8 kmh N 7.0 mph11.3 kmh 29.68 in1005.1 mb 0.00 in0.0 mm 0.00 in0.0 mm 0.00 in0.0 mm
01:30 AM 68.3°F20.2°C 58.9°F14.9°C 72% 4.0 mph N6.4 kmh N 5.0 mph8.0 kmh 29.68 in1005.1 mb 0.00 in0.0 mm 0.00 in0.0 mm 0.00 in0.0 mm
01:35 AM 68.3°F20.2°C 58.9°F14.9°C 72% 5.0 mph N8.0 kmh N 7.0 mph11.3 kmh 29.68 in1005.1 mb 0.00 in0.0 mm 0.00 in0.0 mm 0.00 in0.0 mm
01:40 AM 68.1°F20.1°C 59.1°F15.1°C 73% 3.0 mph N4.8 kmh N 7.0 mph11.3 kmh 29.67 in1004.7 mb 0.00 in0.0 mm 0.00 in0.0 mm 0.00 in0.0 mm
01:45 AM 67.9°F19.9°C 59.3°F15.2°C 74% 4.0 mph N6.4 kmh N 5.0 mph8.0 kmh 29.67 in1004.7 mb 0.00 in0.0 mm 0.00 in0.0 mm 0.00 in0.0 mm
01:50 AM 67.7°F19.8°C 59.1°F15.1°C 74% 6.0 mph N9.7 kmh N 8.0 mph12.9 kmh 29.67 in1004.7 mb 0.00 in0.0 mm 0.00 in0.0 mm 0.00 in0.0 mm
01:55 AM 67.6°F19.8°C 59.0°F15.0°C 74% 8.0 mph N12.9 kmh N 9.0 mph14.5 kmh 29.67 in1004.7 mb 0.00 in0.0 mm 0.00 in0.0 mm 0.00 in0.0 mm
02:00 AM 67.4°F19.7°C 58.8°F14.9°C 74% 4.0 mph N6.4 kmh N 4.0 mph6.4 kmh 29.67 in1004.7 mb 0.00 in0.0 mm 0.00 in0.0 mm 0.00 in0.0 mm
02:05 AM 67.3°F19.6°C 59.1°F15.1°C 75% 6.0 mph N9.7 kmh N 7.0 mph11.3 kmh 29.67 in1004.7 mb 0.00 in0.0 mm 0.00 in0.0 mm 0.00 in0.0 mm
02:10 AM 67.2°F19.6°C 59.0°F15.0°C 75% 6.0 mph N9.7 kmh N 10.0 mph16.1 kmh 29.67 in1004.7 mb 0.00 in0.0 mm 0.00 in0.0 mm 0.00 in0.0 mm
02:15 AM 67.3°F19.6°C 59.1°F15.1°C 75% 6.0 mph N9.7 kmh N 7.0 mph11.3 kmh 29.67 in1004.7 mb 0.00 in0.0 mm 0.00 in0.0 mm 0.00 in0.0 mm
02:20 AM 67.4°F19.7°C 59.2°F15.1°C 75% 5.0 mph N8.0 kmh N 8.0 mph12.9 kmh 29.67 in1004.7 mb 0.00 in0.0 mm 0.00 in0.0 mm 0.00 in0.0 mm
02:25 AM 67.4°F19.7°C 59.6°F15.3°C 76% 3.0 mph N4.8 kmh N 9.0 mph14.5 kmh 29.67 in1004.7 mb 0.00 in0.0 mm 0.00 in0.0 mm 0.00 in0.0 mm
02:30 AM 67.3°F19.6°C 59.5°F15.3°C 76% 5.0 mph N8.0 kmh N 5.0 mph8.0 kmh 29.67 in1004.7 mb 0.00 in0.0 mm 0.00 in0.0 mm 0.00 in0.0 mm
02:35 AM 67.2°F19.6°C 59.4°F15.2°C 76% 5.0 mph N8.0 kmh N 7.0 mph11.3 kmh 29.67 in1004.7 mb 0.00 in0.0 mm 0.00 in0.0 mm 0.00 in0.0 mm
02:40 AM 67.0°F19.4°C 59.2°F15.1°C 76% 5.0 mph N8.0 kmh N 7.0 mph11.3 kmh 29.67 in1004.7 mb 0.00 in0.0 mm 0.00 in0.0 mm 0.00 in0.0 mm
02:45 AM 66.7°F19.3°C 59.3°F15.2°C 77% 3.0 mph N4.8 kmh N 5.0 mph8.0 kmh 29.67 in1004.7 mb 0.00 in0.0 mm 0.00 in0.0 mm 0.00 in0.0 mm
02:50 AM 66.4°F19.1°C 59.0°F15.0°C 77% 5.0 mph N8.0 kmh N 9.0 mph14.5 kmh 29.67 in1004.7 mb 0.00 in0.0 mm 0.00 in0.0 mm 0.00 in0.0 mm
02:55 AM 66.3°F19.1°C 58.9°F14.9°C 77% 4.0 mph N6.4 kmh N 9.0 mph14.5 kmh 29.67 in1004.7 mb 0.00 in0.0 mm 0.00 in0.0 mm 0.00 in0.0 mm
03:00 AM 66.3°F19.1°C 59.2°F15.1°C 78% 5.0 mph N8.0 kmh N 6.0 mph9.7 kmh 29.67 in1004.7 mb 0.00 in0.0 mm 0.00 in0.0 mm 0.00 in0.0 mm
03:05 AM 66.2°F19.0°C 59.2°F15.1°C 78% 3.0 mph N4.8 kmh N 7.0 mph11.3 kmh 29.67 in1004.7 mb 0.00 in0.0 mm 0.00 in0.0 mm 0.00 in0.0 mm
03:10 AM 66.2°F19.0°C 59.2°F15.1°C 78% 4.0 mph N6.4 kmh N 7.0 mph11.3 kmh 29.66 in1004.4 mb 0.00 in0.0 mm 0.00 in0.0 mm 0.00 in0.0 mm
03:15 AM 66.2°F19.0°C 59.2°F15.1°C 78% 4.0 mph N6.4 kmh N 8.0 mph12.9 kmh 29.66 in1004.4 mb 0.00 in0.0 mm 0.00 in0.0 mm 0.00 in0.0 mm
03:20 AM 66.2°F19.0°C 59.2°F15.1°C 78% 3.0 mph N4.8 kmh N 9.0 mph14.5 kmh 29.66 in1004.4 mb 0.00 in0.0 mm 0.00 in0.0 mm 0.00 in0.0 mm
03:25 AM 66.2°F19.0°C 59.2°F15.1°C 78% 3.0 mph N4.8 kmh N 9.0 mph14.5 kmh 29.66 in1004.4 mb 0.00 in0.0 mm 0.00 in0.0 mm 0.00 in0.0 mm
03:30 AM 66.3°F19.1°C 59.2°F15.1°C 78% 4.0 mph N6.4 kmh N 9.0 mph14.5 kmh 29.66 in1004.4 mb 0.00 in0.0 mm 0.00 in0.0 mm 0.00 in0.0 mm
03:35 AM 66.3°F19.1°C 59.2°F15.1°C 78% 4.0 mph N6.4 kmh N 10.0 mph16.1 kmh 29.66 in1004.4 mb 0.00 in0.0 mm 0.00 in0.0 mm 0.00 in0.0 mm
03:40 AM 66.3°F19.1°C 59.2°F15.1°C 78% 5.0 mph N8.0 kmh N 10.0 mph16.1 kmh 29.66 in1004.4 mb 0.00 in0.0 mm 0.00 in0.0 mm 0.00 in0.0 mm
03:45 AM 66.3°F19.1°C 59.2°F15.1°C 78% 4.0 mph N6.4 kmh N 6.0 mph9.7 kmh 29.65 in1004.1 mb 0.00 in0.0 mm 0.00 in0.0 mm 0.00 in0.0 mm
03:50 AM 66.3°F19.1°C 59.2°F15.1°C 78% 6.0 mph N9.7 kmh N 8.0 mph12.9 kmh 29.65 in1004.1 mb 0.00 in0.0 mm 0.00 in0.0 mm 0.00 in0.0 mm
03:55 AM 66.2°F19.0°C 59.5°F15.3°C 79% 4.0 mph N6.4 kmh N 8.0 mph12.9 kmh 29.65 in1004.1 mb 0.00 in0.0 mm 0.00 in0.0 mm 0.00 in0.0 mm
04:00 AM 66.1°F18.9°C 59.4°F15.2°C 79% 3.0 mph N4.8 kmh N 3.0 mph4.8 kmh 29.65 in1004.1 mb 0.00 in0.0 mm 0.00 in0.0 mm 0.00 in0.0 mm
04:05 AM 66.0°F18.9°C 59.3°F15.2°C 79% 5.0 mph N8.0 kmh N 7.0 mph11.3 kmh 29.65 in1004.1 mb 0.00 in0.0 mm 0.00 in0.0 mm 0.00 in0.0 mm
04:10 AM 65.9°F18.8°C 59.2°F15.1°C 79% 4.0 mph N6.4 kmh N 8.0 mph12.9 kmh 29.65 in1004.1 mb 0.00 in0.0 mm 0.00 in0.0 mm 0.00 in0.0 mm
04:15 AM 65.9°F18.8°C 59.2°F15.1°C 79% 5.0 mph N8.0 kmh N 7.0 mph11.3 kmh 29.65 in1004.1 mb 0.00 in0.0 mm 0.00 in0.0 mm 0.00 in0.0 mm
04:20 AM 65.9°F18.8°C 59.2°F15.1°C 79% 10.0 mph N16.1 kmh N 10.0 mph16.1 kmh 29.65 in1004.1 mb 0.00 in0.0 mm 0.00 in0.0 mm 0.00 in0.0 mm
04:25 AM 65.9°F18.8°C 59.2°F15.1°C 79% 2.0 mph N3.2 kmh N 10.0 mph16.1 kmh 29.65 in1004.1 mb 0.00 in0.0 mm 0.00 in0.0 mm 0.00 in0.0 mm
04:30 AM 65.8°F18.8°C 59.1°F15.1°C 79% 5.0 mph N8.0 kmh N 5.0 mph8.0 kmh 29.65 in1004.1 mb 0.00 in0.0 mm 0.00 in0.0 mm 0.00 in0.0 mm
04:35 AM 65.7°F18.7°C 59.0°F15.0°C 79% 2.0 mph N3.2 kmh N 9.0 mph14.5 kmh 29.65 in1004.1 mb 0.00 in0.0 mm 0.00 in0.0 mm 0.00 in0.0 mm
04:40 AM 65.5°F18.6°C 59.2°F15.1°C 80% 3.0 mph N4.8 kmh N 10.0 mph16.1 kmh 29.65 in1004.1 mb 0.00 in0.0 mm 0.00 in0.0 mm 0.00 in0.0 mm
04:45 AM 65.4°F18.6°C 59.1°F15.1°C 80% 4.0 mph N6.4 kmh N 7.0 mph11.3 kmh 29.65 in1004.1 mb 0.00 in0.0 mm 0.00 in0.0 mm 0.00 in0.0 mm
04:50 AM 65.2°F18.4°C 58.9°F14.9°C 80% 7.0 mph N11.3 kmh N 11.0 mph17.7 kmh 29.65 in1004.1 mb 0.00 in0.0 mm 0.00 in0.0 mm 0.00 in0.0 mm
04:55 AM 65.0°F18.3°C 58.7°F14.8°C 80% 5.0 mph N8.0 kmh N 11.0 mph17.7 kmh 29.65 in1004.1 mb 0.00 in0.0 mm 0.00 in0.0 mm 0.00 in0.0 mm
05:00 AM 64.9°F18.3°C 58.9°F14.9°C 81% 8.0 mph N12.9 kmh N 8.0 mph12.9 kmh 29.65 in1004.1 mb 0.00 in0.0 mm 0.00 in0.0 mm 0.00 in0.0 mm
05:05 AM 65.0°F18.3°C 58.7°F14.8°C 80% 8.0 mph N12.9 kmh N 13.0 mph20.9 kmh 29.65 in1004.1 mb 0.00 in0.0 mm 0.00 in0.0 mm 0.00 in0.0 mm
05:10 AM 65.2°F18.4°C 58.9°F14.9°C 80% 5.0 mph N8.0 kmh N 13.0 mph20.9 kmh 29.65 in1004.1 mb 0.00 in0.0 mm 0.00 in0.0 mm 0.00 in0.0 mm
05:15 AM 65.3°F18.5°C 59.0°F15.0°C 80% 4.0 mph N6.4 kmh N 9.0 mph14.5 kmh 29.65 in1004.1 mb 0.00 in0.0 mm 0.00 in0.0 mm 0.00 in0.0 mm
05:20 AM 65.3°F18.5°C 59.0°F15.0°C 80% 4.0 mph N6.4 kmh N 10.0 mph16.1 kmh 29.65 in1004.1 mb 0.00 in0.0 mm 0.00 in0.0 mm 0.00 in0.0 mm
05:25 AM 65.3°F18.5°C 59.0°F15.0°C 80% 6.0 mph N9.7 kmh N 10.0 mph16.1 kmh 29.65 in1004.1 mb 0.00 in0.0 mm 0.00 in0.0 mm 0.00 in0.0 mm
05:30 AM 65.3°F18.5°C 59.0°F15.0°C 80% 4.0 mph N6.4 kmh N 7.0 mph11.3 kmh 29.65 in1004.1 mb 0.00 in0.0 mm 0.00 in0.0 mm 0.00 in0.0 mm
05:35 AM 65.3°F18.5°C 59.0°F15.0°C 80% 8.0 mph N12.9 kmh N 10.0 mph16.1 kmh 29.65 in1004.1 mb 0.00 in0.0 mm 0.00 in0.0 mm 0.00 in0.0 mm
05:40 AM 65.4°F18.6°C 59.1°F15.1°C 80% 5.0 mph N8.0 kmh N 12.0 mph19.3 kmh 29.65 in1004.1 mb 0.00 in0.0 mm 0.00 in0.0 mm 0.00 in0.0 mm
05:45 AM 65.6°F18.7°C 59.3°F15.2°C 80% 6.0 mph N9.7 kmh N 8.0 mph12.9 kmh 29.64 in1003.7 mb 0.00 in0.0 mm 0.00 in0.0 mm 0.00 in0.0 mm
05:50 AM 65.9°F18.8°C 59.2°F15.1°C 79% 9.0 mph N14.5 kmh N 11.0 mph17.7 kmh 29.64 in1003.7 mb 0.00 in0.0 mm 0.00 in0.0 mm 0.00 in0.0 mm
05:55 AM 66.1°F18.9°C 59.4°F15.2°C 79% 9.0 mph N14.5 kmh N 12.0 mph19.3 kmh 29.64 in1003.7 mb 0.00 in0.0 mm 0.00 in0.0 mm 0.00 in0.0 mm
06:00 AM 66.5°F19.2°C 59.4°F15.2°C 78% 3.0 mph N4.8 kmh N 7.0 mph11.3 kmh 29.65 in1004.1 mb 0.00 in0.0 mm 0.00 in0.0 mm 0.00 in0.0 mm
06:05 AM 66.8°F19.3°C 59.4°F15.2°C 77% 8.0 mph N12.9 kmh N 14.0 mph22.5 kmh 29.64 in1003.7 mb 0.00 in0.0 mm 0.00 in0.0 mm 0.00 in0.0 mm
06:10 AM 67.0°F19.4°C 59.6°F15.3°C 77% 10.0 mph N16.1 kmh N 15.0 mph24.1 kmh 29.64 in1003.7 mb 0.00 in0.0 mm 0.00 in0.0 mm 0.00 in0.0 mm
06:15 AM 67.2°F19.6°C 59.8°F15.4°C 77% 5.0 mph N8.0 kmh N 5.0 mph8.0 kmh 29.65 in1004.1 mb 0.00 in0.0 mm 0.00 in0.0 mm 0.00 in0.0 mm
06:20 AM 67.4°F19.7°C 59.6°F15.3°C 76% 5.0 mph N8.0 kmh N 13.0 mph20.9 kmh 29.64 in1003.7 mb 0.00 in0.0 mm 0.00 in0.0 mm 0.00 in0.0 mm
06:25 AM 67.6°F19.8°C 59.4°F15.2°C 75% 14.0 mph N22.5 kmh N 17.0 mph27.4 kmh 29.64 in1003.7 mb 0.00 in0.0 mm 0.00 in0.0 mm 0.00 in0.0 mm
06:30 AM 67.8°F19.9°C 59.6°F15.3°C 75% 9.0 mph N14.5 kmh N 9.0 mph14.5 kmh 29.65 in1004.1 mb 0.00 in0.0 mm 0.00 in0.0 mm 0.00 in0.0 mm
06:35 AM 68.0°F20.0°C 60.2°F15.7°C 76% 7.0 mph N11.3 kmh N 15.0 mph24.1 kmh 29.65 in1004.1 mb 0.00 in0.0 mm 0.00 in0.0 mm 0.00 in0.0 mm
06:40 AM 68.2°F20.1°C 60.0°F15.6°C 75% 6.0 mph N9.7 kmh N 15.0 mph24.1 kmh 29.64 in1003.7 mb 0.00 in0.0 mm 0.00 in0.0 mm 0.00 in0.0 mm
06:45 AM 68.3°F20.2°C 60.1°F15.6°C 75% 14.0 mph N22.5 kmh N 14.0 mph22.5 kmh 29.64 in1003.7 mb 0.00 in0.0 mm 0.00 in0.0 mm 0.00 in0.0 mm
06:50 AM 68.5°F20.3°C 60.3°F15.7°C 75% 7.0 mph N11.3 kmh N 15.0 mph24.1 kmh 29.64 in1003.7 mb 0.00 in0.0 mm 0.00 in0.0 mm 0.00 in0.0 mm
06:55 AM 68.7°F20.4°C 60.5°F15.8°C 75% 9.0 mph N14.5 kmh N 15.0 mph24.1 kmh 29.64 in1003.7 mb 0.00 in0.0 mm 0.00 in0.0 mm 0.00 in0.0 mm
07:00 AM 69.0°F20.6°C 60.4°F15.8°C 74% 8.0 mph N12.9 kmh N 12.0 mph19.3 kmh 29.64 in1003.7 mb 0.00 in0.0 mm 0.00 in0.0 mm 0.00 in0.0 mm
07:05 AM 69.4°F20.8°C 60.8°F16.0°C 74% 6.0 mph N9.7 kmh N 13.0 mph20.9 kmh 29.64 in1003.7 mb 0.00 in0.0 mm 0.00 in0.0 mm 0.00 in0.0 mm
07:10 AM 69.8°F21.0°C 60.8°F16.0°C 73% 4.0 mph N6.4 kmh N 17.0 mph27.4 kmh 29.64 in1003.7 mb 0.00 in0.0 mm 0.00 in0.0 mm 0.00 in0.0 mm
07:15 AM 70.1°F21.2°C 61.1°F16.2°C 73% 16.0 mph N25.7 kmh N 16.0 mph25.7 kmh 29.64 in1003.7 mb 0.00 in0.0 mm 0.00 in0.0 mm 0.00 in0.0 mm
07:20 AM 70.5°F21.4°C 61.1°F16.2°C 72% 13.0 mph N20.9 kmh N 16.0 mph25.7 kmh 29.64 in1003.7 mb 0.00 in0.0 mm 0.00 in0.0 mm 0.00 in0.0 mm
07:25 AM 70.7°F21.5°C 61.2°F16.2°C 72% 12.0 mph N19.3 kmh N 16.0 mph25.7 kmh 29.64 in1003.7 mb 0.00 in0.0 mm 0.00 in0.0 mm 0.00 in0.0 mm
07:30 AM 70.8°F21.6°C 61.3°F16.3°C 72% 9.0 mph N14.5 kmh N 12.0 mph19.3 kmh 29.64 in1003.7 mb 0.00 in0.0 mm 0.00 in0.0 mm 0.00 in0.0 mm
07:35 AM 71.2°F21.8°C 61.3°F16.3°C 71% 8.0 mph N12.9 kmh N 12.0 mph19.3 kmh 29.64 in1003.7 mb 0.00 in0.0 mm 0.00 in0.0 mm 0.00 in0.0 mm
07:40 AM 71.7°F22.1°C 61.8°F16.6°C 71% 10.0 mph N16.1 kmh N 15.0 mph24.1 kmh 29.64 in1003.7 mb 0.00 in0.0 mm 0.00 in0.0 mm 0.00 in0.0 mm
07:45 AM 72.5°F22.5°C 62.2°F16.8°C 70% 12.0 mph N19.3 kmh N 12.0 mph19.3 kmh 29.64 in1003.7 mb 0.00 in0.0 mm 0.00 in0.0 mm 0.00 in0.0 mm
07:50 AM 73.3°F22.9°C 62.5°F16.9°C 69% 17.0 mph N27.4 kmh N 19.0 mph30.6 kmh 29.64 in1003.7 mb 0.00 in0.0 mm 0.00 in0.0 mm 0.00 in0.0 mm
07:55 AM 74.0°F23.3°C 62.4°F16.9°C 67% 7.0 mph N11.3 kmh N 19.0 mph30.6 kmh 29.63 in1003.4 mb 0.00 in0.0 mm 0.00 in0.0 mm 0.00 in0.0 mm
08:00 AM 74.8°F23.8°C 62.7°F17.1°C 66% 6.0 mph N9.7 kmh N 12.0 mph19.3 kmh 29.63 in1003.4 mb 0.00 in0.0 mm 0.00 in0.0 mm 0.00 in0.0 mm
08:05 AM 75.4°F24.1°C 62.8°F17.1°C 65% 9.0 mph N14.5 kmh N 15.0 mph24.1 kmh 29.63 in1003.4 mb 0.00 in0.0 mm 0.00 in0.0 mm 0.00 in0.0 mm
08:10 AM 76.0°F24.4°C 63.0°F17.2°C 64% 6.0 mph N9.7 kmh N 18.0 mph29.0 kmh 29.63 in1003.4 mb 0.00 in0.0 mm 0.00 in0.0 mm 0.00 in0.0 mm
08:15 AM 76.6°F24.8°C 62.6°F17.0°C 62% 15.0 mph N24.1 kmh N 16.0 mph25.7 kmh 29.63 in1003.4 mb 0.00 in0.0 mm 0.00 in0.0 mm 0.00 in0.0 mm
08:20 AM 77.1°F25.1°C 63.1°F17.3°C 62% 7.0 mph N11.3 kmh N 17.0 mph27.4 kmh 29.63 in1003.4 mb 0.00 in0.0 mm 0.00 in0.0 mm 0.00 in0.0 mm
08:25 AM 77.6°F25.3°C 63.1°F17.3°C 61% 8.0 mph N12.9 kmh N 19.0 mph30.6 kmh 29.63 in1003.4 mb 0.00 in0.0 mm 0.00 in0.0 mm 0.00 in0.0 mm
08:30 AM 78.0°F25.6°C 63.5°F17.5°C 61% 19.0 mph N30.6 kmh N 21.0 mph33.8 kmh 29.63 in1003.4 mb 0.00 in0.0 mm 0.00 in0.0 mm 0.00 in0.0 mm
08:35 AM 78.3°F25.7°C 63.8°F17.7°C 61% 10.0 mph N16.1 kmh N 21.0 mph33.8 kmh 29.63 in1003.4 mb 0.00 in0.0 mm 0.00 in0.0 mm 0.00 in0.0 mm
08:40 AM 78.6°F25.9°C 63.6°F17.6°C 60% 11.0 mph N17.7 kmh N 21.0 mph33.8 kmh 29.62 in1003.0 mb 0.00 in0.0 mm 0.00 in0.0 mm 0.00 in0.0 mm
08:45 AM 78.8°F26.0°C 63.8°F17.7°C 60% 13.0 mph N20.9 kmh N 14.0 mph22.5 kmh 29.62 in1003.0 mb 0.00 in0.0 mm 0.00 in0.0 mm 0.00 in0.0 mm
08:50 AM 79.1°F26.2°C 64.0°F17.8°C 60% 11.0 mph N17.7 kmh N 18.0 mph29.0 kmh 29.62 in1003.0 mb 0.00 in0.0 mm 0.00 in0.0 mm 0.00 in0.0 mm
08:55 AM 79.0°F26.1°C 63.9°F17.7°C 60% 16.0 mph N25.7 kmh N 18.0 mph29.0 kmh 29.62 in1003.0 mb 0.00 in0.0 mm 0.00 in0.0 mm 0.00 in0.0 mm
09:00 AM 79.3°F26.3°C 64.2°F17.9°C 60% 6.0 mph N9.7 kmh N 11.0 mph17.7 kmh 29.62 in1003.0 mb 0.00 in0.0 mm 0.00 in0.0 mm 0.00 in0.0 mm
09:05 AM 79.4°F26.3°C 64.8°F18.2°C 61% 7.0 mph N11.3 kmh N 16.0 mph25.7 kmh 29.62 in1003.0 mb 0.00 in0.0 mm 0.00 in0.0 mm 0.00 in0.0 mm
09:10 AM 79.7°F26.5°C 65.1°F18.4°C 61% 9.0 mph N14.5 kmh N 17.0 mph27.4 kmh 29.61 in1002.7 mb 0.00 in0.0 mm 0.00 in0.0 mm 0.00 in0.0 mm
09:15 AM 80.2°F26.8°C 65.1°F18.4°C 60% 8.0 mph N12.9 kmh N 10.0 mph16.1 kmh 29.61 in1002.7 mb 0.00 in0.0 mm 0.00 in0.0 mm 0.00 in0.0 mm
09:20 AM 80.8°F27.1°C 64.7°F18.2°C 58% 17.0 mph N27.4 kmh N 20.0 mph32.2 kmh 29.61 in1002.7 mb 0.00 in0.0 mm 0.00 in0.0 mm 0.00 in0.0 mm
09:25 AM 81.1°F27.3°C 64.9°F18.3°C 58% 9.0 mph N14.5 kmh N 20.0 mph32.2 kmh 29.61 in1002.7 mb 0.00 in0.0 mm 0.00 in0.0 mm 0.00 in0.0 mm
09:30 AM 81.3°F27.4°C 65.1°F18.4°C 58% 14.0 mph N22.5 kmh N 14.0 mph22.5 kmh 29.61 in1002.7 mb 0.00 in0.0 mm 0.00 in0.0 mm 0.00 in0.0 mm
09:35 AM 81.7°F27.6°C 65.0°F18.3°C 57% 10.0 mph N16.1 kmh N 24.0 mph38.6 kmh 29.61 in1002.7 mb 0.00 in0.0 mm 0.00 in0.0 mm 0.00 in0.0 mm
09:40 AM 82.1°F27.8°C 65.9°F18.8°C 58% 10.0 mph N16.1 kmh N 24.0 mph38.6 kmh 29.61 in1002.7 mb 0.00 in0.0 mm 0.00 in0.0 mm 0.00 in0.0 mm
09:45 AM 82.7°F28.2°C 64.9°F18.3°C 55% 23.0 mph N37.0 kmh N 23.0 mph37.0 kmh 29.61 in1002.7 mb 0.00 in0.0 mm 0.00 in0.0 mm 0.00 in0.0 mm
09:50 AM 83.0°F28.3°C 65.2°F18.4°C 55% 14.0 mph N22.5 kmh N 24.0 mph38.6 kmh 29.60 in1002.4 mb 0.00 in0.0 mm 0.00 in0.0 mm 0.00 in0.0 mm
09:55 AM 83.5°F28.6°C 65.1°F18.4°C 54% 22.0 mph N35.4 kmh N 27.0 mph43.5 kmh 29.60 in1002.4 mb 0.00 in0.0 mm 0.00 in0.0 mm 0.00 in0.0 mm
10:00 AM 84.1°F28.9°C 65.7°F18.7°C 54% 14.0 mph N22.5 kmh N 19.0 mph30.6 kmh 29.60 in1002.4 mb 0.00 in0.0 mm 0.00 in0.0 mm 0.00 in0.0 mm
10:05 AM 84.6°F29.2°C 65.6°F18.7°C 53% 11.0 mph N17.7 kmh N 22.0 mph35.4 kmh 29.60 in1002.4 mb 0.00 in0.0 mm 0.00 in0.0 mm 0.00 in0.0 mm
10:10 AM 85.1°F29.5°C 65.0°F18.3°C 51% 16.0 mph N25.7 kmh N 24.0 mph38.6 kmh 29.60 in1002.4 mb 0.00 in0.0 mm 0.00 in0.0 mm 0.00 in0.0 mm
10:15 AM 85.4°F29.7°C 64.7°F18.2°C 50% 5.0 mph N8.0 kmh N 21.0 mph33.8 kmh 29.59 in1002.0 mb 0.00 in0.0 mm 0.00 in0.0 mm 0.00 in0.0 mm
10:20 AM 85.5°F29.7°C 65.3°F18.5°C 51% 11.0 mph N17.7 kmh N 28.0 mph45.1 kmh 29.59 in1002.0 mb 0.00 in0.0 mm 0.00 in0.0 mm 0.00 in0.0 mm
10:25 AM 85.8°F29.9°C 64.5°F18.1°C 49% 14.0 mph N22.5 kmh N 29.0 mph46.7 kmh 29.60 in1002.4 mb 0.00 in0.0 mm 0.00 in0.0 mm 0.00 in0.0 mm
10:30 AM 86.2°F30.1°C 64.2°F17.9°C 48% 14.0 mph N22.5 kmh N 18.0 mph29.0 kmh 29.59 in1002.0 mb 0.00 in0.0 mm 0.00 in0.0 mm 0.00 in0.0 mm
10:35 AM 86.6°F30.3°C 64.0°F17.8°C 47% 13.0 mph N20.9 kmh N 30.0 mph48.3 kmh 29.59 in1002.0 mb 0.00 in0.0 mm 0.00 in0.0 mm 0.00 in0.0 mm
10:40 AM 86.7°F30.4°C 64.7°F18.2°C 48% 7.0 mph N11.3 kmh N 30.0 mph48.3 kmh 29.59 in1002.0 mb 0.00 in0.0 mm 0.00 in0.0 mm 0.00 in0.0 mm
10:45 AM 86.8°F30.4°C 64.2°F17.9°C 47% 11.0 mph N17.7 kmh N 19.0 mph30.6 kmh 29.60 in1002.4 mb 0.00 in0.0 mm 0.00 in0.0 mm 0.00 in0.0 mm
10:50 AM 86.9°F30.5°C 64.3°F17.9°C 47% 15.0 mph N24.1 kmh N 26.0 mph41.8 kmh 29.59 in1002.0 mb 0.00 in0.0 mm 0.00 in0.0 mm 0.00 in0.0 mm
10:55 AM 86.6°F30.3°C 64.6°F18.1°C 48% 18.0 mph N29.0 kmh N 30.0 mph48.3 kmh 29.59 in1002.0 mb 0.00 in0.0 mm 0.00 in0.0 mm 0.00 in0.0 mm
11:00 AM 86.7°F30.4°C 64.7°F18.2°C 48% 16.0 mph N25.7 kmh N 23.0 mph37.0 kmh 29.59 in1002.0 mb 0.00 in0.0 mm 0.00 in0.0 mm 0.00 in0.0 mm
11:05 AM 87.1°F30.6°C 64.4°F18.0°C 47% 19.0 mph N30.6 kmh N 33.0 mph53.1 kmh 29.59 in1002.0 mb 0.00 in0.0 mm 0.00 in0.0 mm 0.00 in0.0 mm
11:10 AM 87.2°F30.7°C 64.5°F18.1°C 47% 14.0 mph N22.5 kmh N 33.0 mph53.1 kmh 29.58 in1001.7 mb 0.00 in0.0 mm 0.00 in0.0 mm 0.00 in0.0 mm
11:15 AM 87.6°F30.9°C 64.9°F18.3°C 47% 11.0 mph N17.7 kmh N 20.0 mph32.2 kmh 29.58 in1001.7 mb 0.00 in0.0 mm 0.00 in0.0 mm 0.00 in0.0 mm
11:20 AM 87.8°F31.0°C 65.1°F18.4°C 47% 12.0 mph N19.3 kmh N 23.0 mph37.0 kmh 29.58 in1001.7 mb 0.00 in0.0 mm 0.00 in0.0 mm 0.00 in0.0 mm
11:25 AM 88.2°F31.2°C 64.8°F18.2°C 46% 13.0 mph N20.9 kmh N 28.0 mph45.1 kmh 29.58 in1001.7 mb 0.00 in0.0 mm 0.00 in0.0 mm 0.00 in0.0 mm
11:30 AM 88.4°F31.3°C 65.0°F18.3°C 46% 21.0 mph N33.8 kmh N 28.0 mph45.1 kmh 29.58 in1001.7 mb 0.00 in0.0 mm 0.00 in0.0 mm 0.00 in0.0 mm
11:35 AM 88.3°F31.3°C 64.3°F17.9°C 45% 18.0 mph N29.0 kmh N 34.0 mph54.7 kmh 29.58 in1001.7 mb 0.00 in0.0 mm 0.00 in0.0 mm 0.00 in0.0 mm
11:40 AM 88.2°F31.2°C 62.9°F17.2°C 43% 25.0 mph N40.2 kmh N 34.0 mph54.7 kmh 29.58 in1001.7 mb 0.00 in0.0 mm 0.00 in0.0 mm 0.00 in0.0 mm
11:45 AM 88.3°F31.3°C 63.7°F17.6°C 44% 18.0 mph N29.0 kmh N 28.0 mph45.1 kmh 29.58 in1001.7 mb 0.00 in0.0 mm 0.00 in0.0 mm 0.00 in0.0 mm
11:50 AM 88.4°F31.3°C 65.0°F18.3°C 46% 18.0 mph N29.0 kmh N 28.0 mph45.1 kmh 29.58 in1001.7 mb 0.00 in0.0 mm 0.00 in0.0 mm 0.00 in0.0 mm
11:55 AM 88.9°F31.6°C 64.2°F17.9°C 44% 22.0 mph N35.4 kmh N 32.0 mph51.5 kmh 29.58 in1001.7 mb 0.00 in0.0 mm 0.00 in0.0 mm 0.00 in0.0 mm
12:00 PM 89.2°F31.8°C 63.1°F17.3°C 42% 18.0 mph N29.0 kmh N 27.0 mph43.5 kmh 29.57 in1001.4 mb 0.00 in0.0 mm 0.00 in0.0 mm 0.00 in0.0 mm
12:05 PM 89.2°F31.8°C 63.1°F17.3°C 42% 16.0 mph N25.7 kmh N 32.0 mph51.5 kmh 29.57 in1001.4 mb 0.00 in0.0 mm 0.00 in0.0 mm 0.00 in0.0 mm
12:10 PM 89.1°F31.7°C 62.4°F16.9°C 41% 20.0 mph N32.2 kmh N 32.0 mph51.5 kmh 29.57 in1001.4 mb 0.00 in0.0 mm 0.00 in0.0 mm 0.00 in0.0 mm
12:15 PM 88.8°F31.6°C 62.8°F17.1°C 42% 20.0 mph N32.2 kmh N 27.0 mph43.5 kmh 29.57 in1001.4 mb 0.00 in0.0 mm 0.00 in0.0 mm 0.00 in0.0 mm
12:20 PM 88.6°F31.4°C 62.6°F17.0°C 42% 22.0 mph N35.4 kmh N 31.0 mph49.9 kmh 29.57 in1001.4 mb 0.00 in0.0 mm 0.00 in0.0 mm 0.00 in0.0 mm
12:25 PM 89.0°F31.7°C 62.3°F16.8°C 41% 12.0 mph N19.3 kmh N 31.0 mph49.9 kmh 29.57 in1001.4 mb 0.00 in0.0 mm 0.00 in0.0 mm 0.00 in0.0 mm
12:30 PM 89.2°F31.8°C 61.8°F16.6°C 40% 11.0 mph N17.7 kmh N 26.0 mph41.8 kmh 29.57 in1001.4 mb 0.00 in0.0 mm 0.00 in0.0 mm 0.00 in0.0 mm
12:35 PM 89.5°F31.9°C 61.3°F16.3°C 39% 17.0 mph N27.4 kmh N 31.0 mph49.9 kmh 29.56 in1001.0 mb 0.00 in0.0 mm 0.00 in0.0 mm 0.00 in0.0 mm
12:40 PM 89.7°F32.1°C 61.5°F16.4°C 39% 17.0 mph N27.4 kmh N 32.0 mph51.5 kmh 29.57 in1001.4 mb 0.00 in0.0 mm 0.00 in0.0 mm 0.00 in0.0 mm
12:45 PM 89.9°F32.2°C 61.7°F16.5°C 39% 22.0 mph N35.4 kmh N 28.0 mph45.1 kmh 29.56 in1001.0 mb 0.00 in0.0 mm 0.00 in0.0 mm 0.00 in0.0 mm
12:50 PM 90.2°F32.3°C 62.6°F17.0°C 40% 23.0 mph N37.0 kmh N 29.0 mph46.7 kmh 29.56 in1001.0 mb 0.00 in0.0 mm 0.00 in0.0 mm 0.00 in0.0 mm
12:55 PM 90.5°F32.5°C 62.9°F17.2°C 40% 24.0 mph N38.6 kmh N 32.0 mph51.5 kmh 29.56 in1001.0 mb 0.00 in0.0 mm 0.00 in0.0 mm 0.00 in0.0 mm
01:00 PM 90.5°F32.5°C 62.2°F16.8°C 39% 16.0 mph N25.7 kmh N 26.0 mph41.8 kmh 29.56 in1001.0 mb 0.00 in0.0 mm 0.00 in0.0 mm 0.00 in0.0 mm
01:05 PM 89.9°F32.2°C 64.4°F18.0°C 43% 19.0 mph N30.6 kmh N 30.0 mph48.3 kmh 29.56 in1001.0 mb 0.00 in0.0 mm 0.00 in0.0 mm 0.00 in0.0 mm
01:10 PM 90.0°F32.2°C 62.5°F16.9°C 40% 14.0 mph N22.5 kmh N 30.0 mph48.3 kmh 29.56 in1001.0 mb 0.00 in0.0 mm 0.00 in0.0 mm 0.00 in0.0 mm
01:15 PM 90.0°F32.2°C 61.7°F16.5°C 39% 17.0 mph N27.4 kmh N 22.0 mph35.4 kmh 29.56 in1001.0 mb 0.00 in0.0 mm 0.00 in0.0 mm 0.00 in0.0 mm
01:20 PM 89.9°F32.2°C 63.8°F17.7°C 42% 16.0 mph N25.7 kmh N 30.0 mph48.3 kmh 29.56 in1001.0 mb 0.00 in0.0 mm 0.00 in0.0 mm 0.00 in0.0 mm
01:25 PM 89.9°F32.2°C 65.1°F18.4°C 44% 17.0 mph N27.4 kmh N 33.0 mph53.1 kmh 29.56 in1001.0 mb 0.00 in0.0 mm 0.00 in0.0 mm 0.00 in0.0 mm
01:30 PM 89.9°F32.2°C 63.1°F17.3°C 41% 24.0 mph N38.6 kmh N 24.0 mph38.6 kmh 29.56 in1001.0 mb 0.00 in0.0 mm 0.00 in0.0 mm 0.00 in0.0 mm
01:35 PM 89.9°F32.2°C 63.1°F17.3°C 41% 17.0 mph N27.4 kmh N 30.0 mph48.3 kmh 29.56 in1001.0 mb 0.00 in0.0 mm 0.00 in0.0 mm 0.00 in0.0 mm
01:40 PM 89.9°F32.2°C 63.8°F17.7°C 42% 12.0 mph N19.3 kmh N 30.0 mph48.3 kmh 29.56 in1001.0 mb 0.00 in0.0 mm 0.00 in0.0 mm 0.00 in0.0 mm
01:45 PM 89.8°F32.1°C 63.7°F17.6°C 42% 19.0 mph N30.6 kmh N 28.0 mph45.1 kmh 29.55 in1000.7 mb 0.00 in0.0 mm 0.00 in0.0 mm 0.00 in0.0 mm
01:50 PM 89.8°F32.1°C 63.7°F17.6°C 42% 22.0 mph N35.4 kmh N 39.0 mph62.8 kmh 29.55 in1000.7 mb 0.00 in0.0 mm 0.00 in0.0 mm 0.00 in0.0 mm
01:55 PM 90.0°F32.2°C 63.9°F17.7°C 42% 11.0 mph N17.7 kmh N 39.0 mph62.8 kmh 29.55 in1000.7 mb 0.00 in0.0 mm 0.00 in0.0 mm 0.00 in0.0 mm
02:00 PM 89.9°F32.2°C 63.8°F17.7°C 42% 26.0 mph N41.8 kmh N 32.0 mph51.5 kmh 29.55 in1000.7 mb 0.00 in0.0 mm 0.00 in0.0 mm 0.00 in0.0 mm
02:05 PM 90.0°F32.2°C 63.2°F17.3°C 41% 21.0 mph N33.8 kmh N 32.0 mph51.5 kmh 29.55 in1000.7 mb 0.00 in0.0 mm 0.00 in0.0 mm 0.00 in0.0 mm
02:10 PM 90.1°F32.3°C 63.3°F17.4°C 41% 18.0 mph N29.0 kmh N 32.0 mph51.5 kmh 29.54 in1000.3 mb 0.00 in0.0 mm 0.00 in0.0 mm 0.00 in0.0 mm
02:15 PM 90.3°F32.4°C 63.4°F17.4°C 41% 17.0 mph N27.4 kmh N 32.0 mph51.5 kmh 29.54 in1000.3 mb 0.00 in0.0 mm 0.00 in0.0 mm 0.00 in0.0 mm
02:20 PM 90.2°F32.3°C 62.6°F17.0°C 40% 17.0 mph N27.4 kmh N 32.0 mph51.5 kmh 29.53 in1000.0 mb 0.00 in0.0 mm 0.00 in0.0 mm 0.00 in0.0 mm
02:25 PM 90.0°F32.2°C 63.2°F17.3°C 41% 20.0 mph N32.2 kmh N 32.0 mph51.5 kmh 29.54 in1000.3 mb 0.00 in0.0 mm 0.00 in0.0 mm 0.00 in0.0 mm
02:30 PM 90.3°F32.4°C 62.7°F17.1°C 40% 13.0 mph N20.9 kmh N 25.0 mph40.2 kmh 29.54 in1000.3 mb 0.00 in0.0 mm 0.00 in0.0 mm 0.00 in0.0 mm
02:35 PM 90.6°F32.6°C 63.0°F17.2°C 40% 15.0 mph N24.1 kmh N 37.0 mph59.5 kmh 29.53 in1000.0 mb 0.00 in0.0 mm 0.00 in0.0 mm 0.00 in0.0 mm
02:40 PM 90.4°F32.4°C 62.8°F17.1°C 40% 17.0 mph N27.4 kmh N 37.0 mph59.5 kmh 29.53 in1000.0 mb 0.00 in0.0 mm 0.00 in0.0 mm 0.00 in0.0 mm
02:45 PM 90.4°F32.4°C 63.5°F17.5°C 41% 16.0 mph N25.7 kmh N 26.0 mph41.8 kmh 29.53 in1000.0 mb 0.00 in0.0 mm 0.00 in0.0 mm 0.00 in0.0 mm
02:50 PM 90.6°F32.6°C 63.7°F17.6°C 41% 31.0 mph N49.9 kmh N 33.0 mph53.1 kmh 29.54 in1000.3 mb 0.00 in0.0 mm 0.00 in0.0 mm 0.00 in0.0 mm
02:55 PM 90.5°F32.5°C 63.6°F17.6°C 41% 17.0 mph N27.4 kmh N 36.0 mph57.9 kmh 29.53 in1000.0 mb 0.00 in0.0 mm 0.00 in0.0 mm 0.00 in0.0 mm
03:00 PM 91.0°F32.8°C 63.4°F17.4°C 40% 18.0 mph N29.0 kmh N 21.0 mph33.8 kmh 29.53 in1000.0 mb 0.00 in0.0 mm 0.00 in0.0 mm 0.00 in0.0 mm
03:05 PM 90.8°F32.7°C 63.2°F17.3°C 40% 21.0 mph N33.8 kmh N 32.0 mph51.5 kmh 29.53 in1000.0 mb 0.00 in0.0 mm 0.00 in0.0 mm 0.00 in0.0 mm
03:10 PM 90.5°F32.5°C 63.6°F17.6°C 41% 17.0 mph N27.4 kmh N 32.0 mph51.5 kmh 29.53 in1000.0 mb 0.00 in0.0 mm 0.00 in0.0 mm 0.00 in0.0 mm
03:15 PM 90.6°F32.6°C 63.7°F17.6°C 41% 14.0 mph N22.5 kmh N 27.0 mph43.5 kmh 29.53 in1000.0 mb 0.00 in0.0 mm 0.00 in0.0 mm 0.00 in0.0 mm
03:20 PM 90.7°F32.6°C 63.8°F17.7°C 41% 13.0 mph N20.9 kmh N 32.0 mph51.5 kmh 29.53 in1000.0 mb 0.00 in0.0 mm 0.00 in0.0 mm 0.00 in0.0 mm
03:25 PM 90.8°F32.7°C 63.9°F17.7°C 41% 12.0 mph N19.3 kmh N 34.0 mph54.7 kmh 29.53 in1000.0 mb 0.00 in0.0 mm 0.00 in0.0 mm 0.00 in0.0 mm
03:30 PM 90.5°F32.5°C 63.6°F17.6°C 41% 15.0 mph N24.1 kmh N 28.0 mph45.1 kmh 29.53 in1000.0 mb 0.00 in0.0 mm 0.00 in0.0 mm 0.00 in0.0 mm
03:35 PM 90.6°F32.6°C 63.0°F17.2°C 40% 25.0 mph N40.2 kmh N 32.0 mph51.5 kmh 29.53 in1000.0 mb 0.00 in0.0 mm 0.00 in0.0 mm 0.00 in0.0 mm
03:40 PM 90.8°F32.7°C 64.6°F18.1°C 42% 25.0 mph N40.2 kmh N 39.0 mph62.8 kmh 29.52 in999.7 mb 0.00 in0.0 mm 0.00 in0.0 mm 0.00 in0.0 mm
03:45 PM 91.1°F32.8°C 64.1°F17.8°C 41% 11.0 mph N17.7 kmh N 24.0 mph38.6 kmh 29.53 in1000.0 mb 0.00 in0.0 mm 0.00 in0.0 mm 0.00 in0.0 mm
03:50 PM 91.2°F32.9°C 64.2°F17.9°C 41% 18.0 mph N29.0 kmh N 30.0 mph48.3 kmh 29.52 in999.7 mb 0.00 in0.0 mm 0.00 in0.0 mm 0.00 in0.0 mm
03:55 PM 91.2°F32.9°C 63.5°F17.5°C 40% 19.0 mph N30.6 kmh N 31.0 mph49.9 kmh 29.52 in999.7 mb 0.00 in0.0 mm 0.00 in0.0 mm 0.00 in0.0 mm
04:00 PM 90.9°F32.7°C 64.0°F17.8°C 41% 13.0 mph N20.9 kmh N 19.0 mph30.6 kmh 29.52 in999.7 mb 0.00 in0.0 mm 0.00 in0.0 mm 0.00 in0.0 mm
04:05 PM 90.9°F32.7°C 63.3°F17.4°C 40% 14.0 mph N22.5 kmh N 34.0 mph54.7 kmh 29.52 in999.7 mb 0.00 in0.0 mm 0.00 in0.0 mm 0.00 in0.0 mm
04:10 PM 91.0°F32.8°C 63.4°F17.4°C 40% 17.0 mph N27.4 kmh N 34.0 mph54.7 kmh 29.52 in999.7 mb 0.00 in0.0 mm 0.00 in0.0 mm 0.00 in0.0 mm
04:15 PM 91.1°F32.8°C 63.4°F17.4°C 40% 20.0 mph N32.2 kmh N 24.0 mph38.6 kmh 29.53 in1000.0 mb 0.00 in0.0 mm 0.00 in0.0 mm 0.00 in0.0 mm
04:20 PM 90.7°F32.6°C 63.1°F17.3°C 40% 25.0 mph N40.2 kmh N 33.0 mph53.1 kmh 29.53 in1000.0 mb 0.00 in0.0 mm 0.00 in0.0 mm 0.00 in0.0 mm
04:25 PM 90.4°F32.4°C 64.2°F17.9°C 42% 26.0 mph N41.8 kmh N 33.0 mph53.1 kmh 29.53 in1000.0 mb 0.00 in0.0 mm 0.00 in0.0 mm 0.00 in0.0 mm
04:30 PM 90.6°F32.6°C 63.7°F17.6°C 41% 13.0 mph N20.9 kmh N 15.0 mph24.1 kmh 29.53 in1000.0 mb 0.00 in0.0 mm 0.00 in0.0 mm 0.00 in0.0 mm
04:35 PM 90.9°F32.7°C 63.3°F17.4°C 40% 26.0 mph N41.8 kmh N 30.0 mph48.3 kmh 29.53 in1000.0 mb 0.00 in0.0 mm 0.00 in0.0 mm 0.00 in0.0 mm
04:40 PM 91.1°F32.8°C 63.4°F17.4°C 40% 20.0 mph N32.2 kmh N 30.0 mph48.3 kmh 29.53 in1000.0 mb 0.00 in0.0 mm 0.00 in0.0 mm 0.00 in0.0 mm
04:45 PM 91.3°F32.9°C 62.9°F17.2°C 39% 7.0 mph N11.3 kmh N 14.0 mph22.5 kmh 29.53 in1000.0 mb 0.00 in0.0 mm 0.00 in0.0 mm 0.00 in0.0 mm
04:50 PM 91.4°F33.0°C 62.3°F16.8°C 38% 19.0 mph N30.6 kmh N 34.0 mph54.7 kmh 29.53 in1000.0 mb 0.00 in0.0 mm 0.00 in0.0 mm 0.00 in0.0 mm
04:55 PM 91.4°F33.0°C 62.3°F16.8°C 38% 8.0 mph N12.9 kmh N 34.0 mph54.7 kmh 29.53 in1000.0 mb 0.00 in0.0 mm 0.00 in0.0 mm 0.00 in0.0 mm
05:00 PM 91.1°F32.8°C 62.7°F17.1°C 39% 13.0 mph N20.9 kmh N 16.0 mph25.7 kmh 29.53 in1000.0 mb 0.00 in0.0 mm 0.00 in0.0 mm 0.00 in0.0 mm
05:05 PM 90.9°F32.7°C 61.8°F16.6°C 38% 15.0 mph N24.1 kmh N 30.0 mph48.3 kmh 29.53 in1000.0 mb 0.00 in0.0 mm 0.00 in0.0 mm 0.00 in0.0 mm
05:10 PM 90.8°F32.7°C 62.5°F16.9°C 39% 23.0 mph N37.0 kmh N 33.0 mph53.1 kmh 29.54 in1000.3 mb 0.00 in0.0 mm 0.00 in0.0 mm 0.00 in0.0 mm
05:15 PM 90.9°F32.7°C 62.5°F16.9°C 39% 17.0 mph N27.4 kmh N 17.0 mph27.4 kmh 29.53 in1000.0 mb 0.00 in0.0 mm 0.00 in0.0 mm 0.00 in0.0 mm
05:20 PM 90.8°F32.7°C 62.5°F16.9°C 39% 10.0 mph N16.1 kmh N 22.0 mph35.4 kmh 29.54 in1000.3 mb 0.00 in0.0 mm 0.00 in0.0 mm 0.00 in0.0 mm
05:25 PM 90.8°F32.7°C 63.2°F17.3°C 40% 18.0 mph N29.0 kmh N 30.0 mph48.3 kmh 29.54 in1000.3 mb 0.00 in0.0 mm 0.00 in0.0 mm 0.00 in0.0 mm
05:30 PM 90.6°F32.6°C 63.0°F17.2°C 40% 14.0 mph N22.5 kmh N 26.0 mph41.8 kmh 29.54 in1000.3 mb 0.00 in0.0 mm 0.00 in0.0 mm 0.00 in0.0 mm
05:35 PM 90.4°F32.4°C 64.2°F17.9°C 42% 14.0 mph N22.5 kmh N 30.0 mph48.3 kmh 29.53 in1000.0 mb 0.00 in0.0 mm 0.00 in0.0 mm 0.00 in0.0 mm
05:40 PM 89.8°F32.1°C 63.7°F17.6°C 42% 6.0 mph N9.7 kmh N 30.0 mph48.3 kmh 29.53 in1000.0 mb 0.00 in0.0 mm 0.00 in0.0 mm 0.00 in0.0 mm
05:45 PM 89.6°F32.0°C 62.8°F17.1°C 41% 15.0 mph N24.1 kmh N 18.0 mph29.0 kmh 29.53 in1000.0 mb 0.00 in0.0 mm 0.00 in0.0 mm 0.00 in0.0 mm
05:50 PM 89.4°F31.9°C 63.3°F17.4°C 42% 14.0 mph N22.5 kmh N 29.0 mph46.7 kmh 29.53 in1000.0 mb 0.00 in0.0 mm 0.00 in0.0 mm 0.00 in0.0 mm
05:55 PM 89.4°F31.9°C 63.3°F17.4°C 42% 9.0 mph N14.5 kmh N 29.0 mph46.7 kmh 29.53 in1000.0 mb 0.00 in0.0 mm 0.00 in0.0 mm 0.00 in0.0 mm
06:00 PM 89.3°F31.8°C 63.9°F17.7°C 43% 20.0 mph N32.2 kmh N 21.0 mph33.8 kmh 29.53 in1000.0 mb 0.00 in0.0 mm 0.00 in0.0 mm 0.00 in0.0 mm
06:05 PM 89.1°F31.7°C 64.4°F18.0°C 44% 16.0 mph N25.7 kmh N 27.0 mph43.5 kmh 29.53 in1000.0 mb 0.00 in0.0 mm 0.00 in0.0 mm 0.00 in0.0 mm
06:10 PM 88.8°F31.6°C 64.1°F17.8°C 44% 21.0 mph N33.8 kmh N 27.0 mph43.5 kmh 29.52 in999.7 mb 0.00 in0.0 mm 0.00 in0.0 mm 0.00 in0.0 mm
06:15 PM 88.5°F31.4°C 63.8°F17.7°C 44% 17.0 mph N27.4 kmh N 21.0 mph33.8 kmh 29.53 in1000.0 mb 0.00 in0.0 mm 0.00 in0.0 mm 0.00 in0.0 mm
06:20 PM 88.4°F31.3°C 63.7°F17.6°C 44% 26.0 mph N41.8 kmh N 29.0 mph46.7 kmh 29.52 in999.7 mb 0.00 in0.0 mm 0.00 in0.0 mm 0.00 in0.0 mm
06:25 PM 88.3°F31.3°C 63.7°F17.6°C 44% 16.0 mph N25.7 kmh N 31.0 mph49.9 kmh 29.52 in999.7 mb 0.00 in0.0 mm 0.00 in0.0 mm 0.00 in0.0 mm
06:30 PM 88.1°F31.2°C 62.8°F17.1°C 43% 23.0 mph N37.0 kmh N 28.0 mph45.1 kmh 29.52 in999.7 mb 0.00 in0.0 mm 0.00 in0.0 mm 0.00 in0.0 mm
06:35 PM 87.9°F31.1°C 63.9°F17.7°C 45% 6.0 mph N9.7 kmh N 28.0 mph45.1 kmh 29.52 in999.7 mb 0.00 in0.0 mm 0.00 in0.0 mm 0.00 in0.0 mm
06:40 PM 87.5°F30.8°C 63.6°F17.6°C 45% 16.0 mph N25.7 kmh N 28.0 mph45.1 kmh 29.53 in1000.0 mb 0.00 in0.0 mm 0.00 in0.0 mm 0.00 in0.0 mm
06:45 PM 87.3°F30.7°C 64.0°F17.8°C 46% 17.0 mph N27.4 kmh N 22.0 mph35.4 kmh 29.52 in999.7 mb 0.00 in0.0 mm 0.00 in0.0 mm 0.00 in0.0 mm
06:50 PM 87.0°F30.6°C 63.7°F17.6°C 46% 15.0 mph N24.1 kmh N 30.0 mph48.3 kmh 29.53 in1000.0 mb 0.00 in0.0 mm 0.00 in0.0 mm 0.00 in0.0 mm
06:55 PM 86.7°F30.4°C 64.1°F17.8°C 47% 14.0 mph N22.5 kmh N 30.0 mph48.3 kmh 29.53 in1000.0 mb 0.00 in0.0 mm 0.00 in0.0 mm 0.00 in0.0 mm
07:00 PM 86.4°F30.2°C 64.4°F18.0°C 48% 13.0 mph N20.9 kmh N 17.0 mph27.4 kmh 29.53 in1000.0 mb 0.00 in0.0 mm 0.00 in0.0 mm 0.00 in0.0 mm
07:05 PM 86.0°F30.0°C 64.6°F18.1°C 49% 14.0 mph N22.5 kmh N 23.0 mph37.0 kmh 29.53 in1000.0 mb 0.00 in0.0 mm 0.00 in0.0 mm 0.00 in0.0 mm
07:10 PM 85.7°F29.8°C 64.4°F18.0°C 49% 11.0 mph N17.7 kmh N 23.0 mph37.0 kmh 29.53 in1000.0 mb 0.00 in0.0 mm 0.00 in0.0 mm 0.00 in0.0 mm
07:15 PM 85.5°F29.7°C 64.2°F17.9°C 49% 20.0 mph N32.2 kmh N 20.0 mph32.2 kmh 29.53 in1000.0 mb 0.00 in0.0 mm 0.00 in0.0 mm 0.00 in0.0 mm
07:20 PM 85.3°F29.6°C 64.0°F17.8°C 49% 13.0 mph N20.9 kmh N 23.0 mph37.0 kmh 29.53 in1000.0 mb 0.00 in0.0 mm 0.00 in0.0 mm 0.00 in0.0 mm
07:25 PM 85.2°F29.6°C 63.9°F17.7°C 49% 5.0 mph N8.0 kmh N 28.0 mph45.1 kmh 29.53 in1000.0 mb 0.00 in0.0 mm 0.00 in0.0 mm 0.00 in0.0 mm
07:30 PM 85.0°F29.4°C 64.3°F17.9°C 50% 18.0 mph N29.0 kmh N 26.0 mph41.8 kmh 29.53 in1000.0 mb 0.00 in0.0 mm 0.00 in0.0 mm 0.00 in0.0 mm
07:35 PM 84.8°F29.3°C 64.1°F17.8°C 50% 18.0 mph N29.0 kmh N 26.0 mph41.8 kmh 29.53 in1000.0 mb 0.00 in0.0 mm 0.00 in0.0 mm 0.00 in0.0 mm
07:40 PM 84.5°F29.2°C 63.8°F17.7°C 50% 11.0 mph N17.7 kmh N 27.0 mph43.5 kmh 29.53 in1000.0 mb 0.00 in0.0 mm 0.00 in0.0 mm 0.00 in0.0 mm
07:45 PM 84.2°F29.0°C 64.1°F17.8°C 51% 8.0 mph N12.9 kmh N 20.0 mph32.2 kmh 29.53 in1000.0 mb 0.00 in0.0 mm 0.00 in0.0 mm 0.00 in0.0 mm
07:50 PM 83.8°F28.8°C 64.3°F17.9°C 52% 15.0 mph N24.1 kmh N 20.0 mph32.2 kmh 29.53 in1000.0 mb 0.00 in0.0 mm 0.00 in0.0 mm 0.00 in0.0 mm
07:55 PM 83.5°F28.6°C 64.0°F17.8°C 52% 11.0 mph N17.7 kmh N 20.0 mph32.2 kmh 29.53 in1000.0 mb 0.00 in0.0 mm 0.00 in0.0 mm 0.00 in0.0 mm
08:00 PM 83.2°F28.4°C 64.3°F17.9°C 53% 9.0 mph N14.5 kmh N 17.0 mph27.4 kmh 29.53 in1000.0 mb 0.00 in0.0 mm 0.00 in0.0 mm 0.00 in0.0 mm
08:05 PM 82.9°F28.3°C 64.0°F17.8°C 53% 10.0 mph N16.1 kmh N 21.0 mph33.8 kmh 29.53 in1000.0 mb 0.00 in0.0 mm 0.00 in0.0 mm 0.00 in0.0 mm
08:10 PM 82.6°F28.1°C 63.8°F17.7°C 53% 11.0 mph N17.7 kmh N 25.0 mph40.2 kmh 29.53 in1000.0 mb 0.00 in0.0 mm 0.00 in0.0 mm 0.00 in0.0 mm
08:15 PM 82.5°F28.1°C 63.7°F17.6°C 53% 15.0 mph N24.1 kmh N 19.0 mph30.6 kmh 29.53 in1000.0 mb 0.00 in0.0 mm 0.00 in0.0 mm 0.00 in0.0 mm
08:20 PM 82.3°F27.9°C 63.5°F17.5°C 53% 10.0 mph N16.1 kmh N 23.0 mph37.0 kmh 29.54 in1000.3 mb 0.00 in0.0 mm 0.00 in0.0 mm 0.00 in0.0 mm
08:25 PM 82.1°F27.8°C 63.3°F17.4°C 53% 15.0 mph N24.1 kmh N 23.0 mph37.0 kmh 29.54 in1000.3 mb 0.00 in0.0 mm 0.00 in0.0 mm 0.00 in0.0 mm
08:30 PM 81.8°F27.7°C 63.6°F17.6°C 54% 11.0 mph N17.7 kmh N 21.0 mph33.8 kmh 29.54 in1000.3 mb 0.00 in0.0 mm 0.00 in0.0 mm 0.00 in0.0 mm
08:35 PM 81.6°F27.6°C 63.4°F17.4°C 54% 16.0 mph N25.7 kmh N 21.0 mph33.8 kmh 29.55 in1000.7 mb 0.00 in0.0 mm 0.00 in0.0 mm 0.00 in0.0 mm
08:40 PM 81.4°F27.4°C 63.2°F17.3°C 54% 10.0 mph N16.1 kmh N 21.0 mph33.8 kmh 29.55 in1000.7 mb 0.00 in0.0 mm 0.00 in0.0 mm 0.00 in0.0 mm
08:45 PM 81.2°F27.3°C 63.0°F17.2°C 54% 8.0 mph N12.9 kmh N 11.0 mph17.7 kmh 29.55 in1000.7 mb 0.00 in0.0 mm 0.00 in0.0 mm 0.00 in0.0 mm
08:50 PM 81.0°F27.2°C 62.8°F17.1°C 54% 7.0 mph N11.3 kmh N 23.0 mph37.0 kmh 29.55 in1000.7 mb 0.00 in0.0 mm 0.00 in0.0 mm 0.00 in0.0 mm
08:55 PM 80.9°F27.2°C 62.7°F17.1°C 54% 15.0 mph N24.1 kmh N 23.0 mph37.0 kmh 29.55 in1000.7 mb 0.00 in0.0 mm 0.00 in0.0 mm 0.00 in0.0 mm
09:00 PM 80.8°F27.1°C 62.6°F17.0°C 54% 7.0 mph N11.3 kmh N 14.0 mph22.5 kmh 29.55 in1000.7 mb 0.00 in0.0 mm 0.00 in0.0 mm 0.00 in0.0 mm
09:05 PM 80.6°F27.0°C 62.4°F16.9°C 54% 17.0 mph N27.4 kmh N 21.0 mph33.8 kmh 29.56 in1001.0 mb 0.00 in0.0 mm 0.00 in0.0 mm 0.00 in0.0 mm
09:10 PM 80.4°F26.9°C 62.3°F16.8°C 54% 11.0 mph N17.7 kmh N 21.0 mph33.8 kmh 29.56 in1001.0 mb 0.00 in0.0 mm 0.00 in0.0 mm 0.00 in0.0 mm
09:15 PM 80.2°F26.8°C 62.1°F16.7°C 54% 11.0 mph N17.7 kmh N 13.0 mph20.9 kmh 29.56 in1001.0 mb 0.00 in0.0 mm 0.00 in0.0 mm 0.00 in0.0 mm
09:20 PM 80.0°F26.7°C 61.9°F16.6°C 54% 9.0 mph N14.5 kmh N 14.0 mph22.5 kmh 29.57 in1001.4 mb 0.00 in0.0 mm 0.00 in0.0 mm 0.00 in0.0 mm
09:25 PM 79.6°F26.4°C 62.0°F16.7°C 55% 9.0 mph N14.5 kmh N 17.0 mph27.4 kmh 29.57 in1001.4 mb 0.00 in0.0 mm 0.00 in0.0 mm 0.00 in0.0 mm
09:30 PM 79.4°F26.3°C 61.8°F16.6°C 55% 7.0 mph N11.3 kmh N 13.0 mph20.9 kmh 29.58 in1001.7 mb 0.00 in0.0 mm 0.00 in0.0 mm 0.00 in0.0 mm
09:35 PM 79.1°F26.2°C 61.6°F16.4°C 55% 13.0 mph N20.9 kmh N 14.0 mph22.5 kmh 29.57 in1001.4 mb 0.00 in0.0 mm 0.00 in0.0 mm 0.00 in0.0 mm
09:40 PM 78.9°F26.1°C 61.4°F16.3°C 55% 9.0 mph N14.5 kmh N 16.0 mph25.7 kmh 29.58 in1001.7 mb 0.00 in0.0 mm 0.00 in0.0 mm 0.00 in0.0 mm
09:45 PM 78.7°F25.9°C 61.2°F16.2°C 55% 9.0 mph N14.5 kmh N 12.0 mph19.3 kmh 29.58 in1001.7 mb 0.00 in0.0 mm 0.00 in0.0 mm 0.00 in0.0 mm
09:50 PM 78.5°F25.8°C 61.5°F16.4°C 56% 10.0 mph N16.1 kmh N 15.0 mph24.1 kmh 29.58 in1001.7 mb 0.00 in0.0 mm 0.00 in0.0 mm 0.00 in0.0 mm
09:55 PM 78.3°F25.7°C 61.3°F16.3°C 56% 5.0 mph N8.0 kmh N 15.0 mph24.1 kmh 29.58 in1001.7 mb 0.00 in0.0 mm 0.00 in0.0 mm 0.00 in0.0 mm
10:00 PM 78.1°F25.6°C 61.1°F16.2°C 56% 6.0 mph N9.7 kmh N 12.0 mph19.3 kmh 29.58 in1001.7 mb 0.00 in0.0 mm 0.00 in0.0 mm 0.00 in0.0 mm
10:05 PM 78.1°F25.6°C 61.1°F16.2°C 56% 5.0 mph N8.0 kmh N 16.0 mph25.7 kmh 29.58 in1001.7 mb 0.00 in0.0 mm 0.00 in0.0 mm 0.00 in0.0 mm
10:10 PM 78.0°F25.6°C 61.1°F16.2°C 56% 4.0 mph N6.4 kmh N 16.0 mph25.7 kmh 29.58 in1001.7 mb 0.00 in0.0 mm 0.00 in0.0 mm 0.00 in0.0 mm
10:15 PM 77.8°F25.4°C 60.9°F16.1°C 56% 7.0 mph N11.3 kmh N 11.0 mph17.7 kmh 29.58 in1001.7 mb 0.00 in0.0 mm 0.00 in0.0 mm 0.00 in0.0 mm
10:20 PM 77.5°F25.3°C 61.1°F16.2°C 57% 8.0 mph N12.9 kmh N 14.0 mph22.5 kmh 29.58 in1001.7 mb 0.00 in0.0 mm 0.00 in0.0 mm 0.00 in0.0 mm
10:25 PM 77.3°F25.2°C 60.9°F16.1°C 57% 3.0 mph N4.8 kmh N 14.0 mph22.5 kmh 29.58 in1001.7 mb 0.00 in0.0 mm 0.00 in0.0 mm 0.00 in0.0 mm
10:30 PM 77.1°F25.1°C 61.2°F16.2°C 58% 15.0 mph N24.1 kmh N 15.0 mph24.1 kmh 29.58 in1001.7 mb 0.00 in0.0 mm 0.00 in0.0 mm 0.00 in0.0 mm
10:35 PM 76.9°F24.9°C 61.0°F16.1°C 58% 7.0 mph N11.3 kmh N 16.0 mph25.7 kmh 29.57 in1001.4 mb 0.00 in0.0 mm 0.00 in0.0 mm 0.00 in0.0 mm
10:40 PM 76.8°F24.9°C 61.4°F16.3°C 59% 7.0 mph N11.3 kmh N 21.0 mph33.8 kmh 29.58 in1001.7 mb 0.00 in0.0 mm 0.00 in0.0 mm 0.00 in0.0 mm
10:45 PM 76.7°F24.8°C 61.3°F16.3°C 59% 9.0 mph N14.5 kmh N 11.0 mph17.7 kmh 29.58 in1001.7 mb 0.00 in0.0 mm 0.00 in0.0 mm 0.00 in0.0 mm
10:50 PM 76.6°F24.8°C 61.2°F16.2°C 59% 8.0 mph N12.9 kmh N 18.0 mph29.0 kmh 29.57 in1001.4 mb 0.00 in0.0 mm 0.00 in0.0 mm 0.00 in0.0 mm
10:55 PM 76.4°F24.7°C 61.5°F16.4°C 60% 7.0 mph N11.3 kmh N 18.0 mph29.0 kmh 29.57 in1001.4 mb 0.00 in0.0 mm 0.00 in0.0 mm 0.00 in0.0 mm
11:00 PM 76.3°F24.6°C 61.9°F16.6°C 61% 10.0 mph N16.1 kmh N 11.0 mph17.7 kmh 29.57 in1001.4 mb 0.00 in0.0 mm 0.00 in0.0 mm 0.00 in0.0 mm
11:05 PM 76.0°F24.4°C 61.6°F16.4°C 61% 11.0 mph N17.7 kmh N 18.0 mph29.0 kmh 29.57 in1001.4 mb 0.00 in0.0 mm 0.00 in0.0 mm 0.00 in0.0 mm
11:10 PM 75.8°F24.3°C 61.9°F16.6°C 62% 11.0 mph N17.7 kmh N 19.0 mph30.6 kmh 29.57 in1001.4 mb 0.00 in0.0 mm 0.00 in0.0 mm 0.00 in0.0 mm
11:15 PM 75.6°F24.2°C 61.7°F16.5°C 62% 20.0 mph N32.2 kmh N 20.0 mph32.2 kmh 29.57 in1001.4 mb 0.00 in0.0 mm 0.00 in0.0 mm 0.00 in0.0 mm
11:20 PM 75.4°F24.1°C 61.9°F16.6°C 63% 6.0 mph N9.7 kmh N 20.0 mph32.2 kmh 29.57 in1001.4 mb 0.00 in0.0 mm 0.00 in0.0 mm 0.00 in0.0 mm
11:25 PM 75.3°F24.1°C 61.9°F16.6°C 63% 11.0 mph N17.7 kmh N 20.0 mph32.2 kmh 29.57 in1001.4 mb 0.00 in0.0 mm 0.00 in0.0 mm 0.00 in0.0 mm
11:30 PM 75.2°F24.0°C 62.2°F16.8°C 64% 9.0 mph N14.5 kmh N 16.0 mph25.7 kmh 29.57 in1001.4 mb 0.00 in0.0 mm 0.00 in0.0 mm 0.00 in0.0 mm
11:35 PM 75.1°F23.9°C 62.1°F16.7°C 64% 7.0 mph N11.3 kmh N 17.0 mph27.4 kmh 29.57 in1001.4 mb 0.00 in0.0 mm 0.00 in0.0 mm 0.00 in0.0 mm
11:40 PM 75.1°F23.9°C 62.1°F16.7°C 64% 13.0 mph N20.9 kmh N 18.0 mph29.0 kmh 29.56 in1001.0 mb 0.00 in0.0 mm 0.00 in0.0 mm 0.00 in0.0 mm
11:45 PM 75.0°F23.9°C 62.5°F16.9°C 65% 12.0 mph N19.3 kmh N 12.0 mph19.3 kmh 29.56 in1001.0 mb 0.00 in0.0 mm 0.00 in0.0 mm 0.00 in0.0 mm
11:50 PM 74.8°F23.8°C 62.3°F16.8°C 65% 10.0 mph N16.1 kmh N 21.0 mph33.8 kmh 29.56 in1001.0 mb 0.00 in0.0 mm 0.00 in0.0 mm 0.00 in0.0 mm
11:55 PM 74.7°F23.7°C 62.6°F17.0°C 66% 5.0 mph N8.0 kmh N 21.0 mph33.8 kmh 29.56 in1001.0 mb 0.00 in0.0 mm 0.00 in0.0 mm 0.00 in0.0 mm